Time;durP1;ratioP1;P1;durP2;ratioP2;P2;SDS_P1;SDS_P2;PMS_P1;PMS_P2;Temp;Humidity;BMP_temperature;BMP_pressure;BME280_temperature;BME280_humidity;BME280_pressure;Samples;Min_cycle;Max_cycle;Signal;HPM_P1;HPM_P2
2022/11/07 00:01:29;;;;;;;26.68;15.28;;;;;;;4.45;83.07;100740.43;1724022;81;21502;-79
2022/11/07 00:04:14;;;;;;;37.42;17.45;;;;;;;4.46;83.13;100733.19;1725041;81;21101;-79
2022/11/07 00:07:00;;;;;;;33.25;16.48;;;;;;;4.46;83.13;100721.66;1726693;81;21609;-79
2022/11/07 00:09:45;;;;;;;28.05;16.07;;;;;;;4.45;83.15;100726.34;1670729;83;21538;-79
2022/11/07 00:12:30;;;;;;;32.30;16.27;;;;;;;4.46;83.18;100723.36;1698374;81;21076;-79
2022/11/07 00:15:15;;;;;;;34.88;17.12;;;;;;;4.46;83.16;100733.19;1696730;83;21116;-79
2022/11/07 00:18:00;;;;;;;28.67;16.25;;;;;;;4.46;83.16;100741.28;1694896;83;21492;-79
2022/11/07 00:20:46;;;;;;;31.97;16.70;;;;;;;4.45;83.16;100742.98;1679876;83;20996;-79
2022/11/07 00:23:31;;;;;;;25.23;15.43;;;;;;;4.45;83.24;100741.70;1692017;83;21126;-79
2022/11/07 00:26:16;;;;;;;29.48;16.15;;;;;;;4.46;83.23;100734.88;1693764;83;21053;-79
2022/11/07 00:29:02;;;;;;;34.05;17.45;;;;;;;4.44;83.19;100733.59;1688133;83;21476;-79
2022/11/07 00:31:48;;;;;;;34.67;17.87;;;;;;;4.42;83.20;100722.47;1712103;81;21095;-79
2022/11/07 00:34:36;;;;;;;35.58;16.77;;;;;;;4.40;83.24;100716.90;1709401;81;21584;-79
2022/11/07 00:37:21;;;;;;;34.08;16.82;;;;;;;4.40;83.26;100726.72;1708196;81;21056;-79
2022/11/07 00:40:08;;;;;;;27.75;16.15;;;;;;;4.40;83.27;100711.78;1704527;81;21066;-79
2022/11/07 00:42:53;;;;;;;31.30;16.27;;;;;;;4.38;83.29;100710.48;1685939;83;21013;-79
2022/11/07 00:45:39;;;;;;;34.30;16.97;;;;;;;4.39;83.30;100718.59;1686354;83;21104;-79
2022/11/07 00:48:24;;;;;;;25.05;15.95;;;;;;;4.38;83.30;100708.34;1719582;81;21931;-79
2022/11/07 00:51:13;;;;;;;31.27;16.87;;;;;;;4.39;83.35;100703.66;1729785;81;21489;-79
2022/11/07 00:54:00;;;;;;;28.77;16.82;;;;;;;4.41;83.38;100704.12;1709104;81;21670;-79
2022/11/07 00:56:45;;;;;;;29.72;16.75;;;;;;;4.44;83.41;100696.47;1709258;81;21127;-79
2022/11/07 00:59:29;;;;;;;26.15;16.75;;;;;;;4.46;83.42;100699.04;1736010;81;21040;-79
2022/11/07 01:02:15;;;;;;;35.50;17.20;;;;;;;4.49;83.44;100699.08;1719712;81;21048;-79
2022/11/07 01:05:09;;;;;;;31.10;17.23;;;;;;;4.49;83.46;100699.93;1713389;81;21323;-79
2022/11/07 01:07:54;;;;;;;33.20;17.42;;;;;;;4.52;83.47;100696.55;1728866;81;21115;-79
2022/11/07 01:10:42;;;;;;;30.32;18.23;;;;;;;4.53;83.49;100693.14;1686422;83;21049;-78
2022/11/07 01:13:27;;;;;;;32.83;17.30;;;;;;;4.54;83.46;100702.12;1715866;81;21107;-78
2022/11/07 01:16:13;;;;;;;32.50;17.42;;;;;;;4.55;83.46;100697.86;1686051;83;21123;-79
2022/11/07 01:18:58;;;;;;;29.70;17.30;;;;;;;4.56;83.48;100693.17;1681134;83;21105;-79
2022/11/07 01:21:43;;;;;;;32.88;17.85;;;;;;;4.57;83.47;100689.77;1678719;83;21037;-79
2022/11/07 01:24:28;;;;;;;32.05;17.60;;;;;;;4.58;83.49;100687.22;1691265;83;21414;-79
2022/11/07 01:27:13;;;;;;;32.30;17.27;;;;;;;4.57;83.51;100688.06;1684857;83;21104;-80
2022/11/07 01:29:58;;;;;;;32.53;17.73;;;;;;;4.58;83.51;100688.50;1713879;81;21052;-79
2022/11/07 01:32:43;;;;;;;32.88;18.85;;;;;;;4.57;83.51;100681.66;1686038;83;21648;-79
2022/11/07 01:35:29;;;;;;;34.27;18.52;;;;;;;4.55;83.49;100676.95;1670911;83;21087;-79
2022/11/07 01:38:14;;;;;;;34.25;18.75;;;;;;;4.56;83.54;100682.92;1678361;83;21075;-79
2022/11/07 01:44:12;;;;;;;29.80;19.32;;;;;;;4.54;83.57;100671.39;1653027;85;21076;-79
2022/11/07 01:46:59;;;;;;;31.75;18.27;;;;;;;4.55;83.61;100666.70;1721068;82;21001;-80
2022/11/07 01:49:44;;;;;;;37.28;20.82;;;;;;;4.56;83.62;100661.16;1713739;81;21032;-79
2022/11/07 01:52:36;;;;;;;31.50;18.98;;;;;;;4.56;83.63;100663.30;1715171;82;22225;-79
2022/11/07 01:55:25;;;;;;;34.85;19.15;;;;;;;4.56;83.63;100665.00;1705305;82;21092;-79
2022/11/07 01:58:11;;;;;;;37.20;19.60;;;;;;;4.57;83.65;100657.76;1715711;82;20973;-79
2022/11/07 02:00:56;;;;;;;35.45;19.42;;;;;;;4.57;83.68;100650.94;1721053;82;21051;-79
2022/11/07 02:03:41;;;;;;;32.23;18.70;;;;;;;4.57;83.68;100643.67;1720602;82;21381;-79
2022/11/07 02:06:48;;;;;;;42.10;20.20;;;;;;;4.57;83.69;100648.38;1722670;82;21004;-79
2022/11/07 02:09:34;;;;;;;31.87;18.77;;;;;;;4.57;83.71;100637.27;1722143;82;21081;-78
2022/11/07 02:12:22;;;;;;;38.05;20.70;;;;;;;4.58;83.75;100637.70;1722269;82;21048;-78
2022/11/07 02:15:09;;;;;;;33.35;19.48;;;;;;;4.57;83.74;100627.89;1718301;82;21081;-78
2022/11/07 02:17:56;;;;;;;36.25;19.42;;;;;;;4.59;83.75;100624.06;1714201;81;21035;-78
2022/11/07 02:20:40;;;;;;;;;;;;;;;4.60;83.75;100628.34;1729082;82;21006;-78
2022/11/07 02:23:36;;;;;;;36.53;20.12;;;;;;;4.60;83.85;100615.53;1711916;80;20281;-79
2022/11/07 02:26:22;;;;;;;33.55;19.35;;;;;;;4.60;83.79;100612.55;1712150;81;21674;-79
2022/11/07 02:29:09;;;;;;;38.13;20.68;;;;;;;4.60;83.81;100617.67;1715538;80;21035;-79
2022/11/07 02:32:04;;;;;;;39.30;21.30;;;;;;;4.60;83.82;100620.23;1719608;81;21056;-78
2022/11/07 02:35:01;;;;;;;35.88;20.35;;;;;;;4.59;83.82;100618.94;1697475;81;21041;-78
2022/11/07 02:37:46;;;;;;;37.88;21.90;;;;;;;4.60;83.83;100621.94;1711371;82;21086;-78
2022/11/07 02:40:31;;;;;;;38.58;20.37;;;;;;;4.61;83.86;100620.67;1704233;81;22279;-78
2022/11/07 02:43:20;;;;;;;38.17;21.93;;;;;;;4.61;83.84;100610.42;1697858;81;21729;-78
2022/11/07 02:46:09;;;;;;;41.18;22.85;;;;;;;4.61;83.87;100607.00;1699252;81;21615;-78
2022/11/07 02:48:59;;;;;;;35.33;21.40;;;;;;;4.62;83.89;100615.12;1717479;81;21033;-78
2022/11/07 02:51:44;;;;;;;39.55;22.90;;;;;;;4.61;83.87;100602.73;1704691;81;21500;-78
2022/11/07 02:54:29;;;;;;;37.85;21.60;;;;;;;4.61;83.88;100604.02;1712803;81;20935;-80
2022/11/07 02:57:14;;;;;;;42.50;22.02;;;;;;;4.61;83.89;100604.02;1697193;81;20933;-79
2022/11/07 02:59:59;;;;;;;35.95;21.70;;;;;;;4.60;83.88;100595.91;1715579;81;20908;-79
2022/11/07 03:02:49;;;;;;;44.30;23.18;;;;;;;4.61;83.90;100604.45;1715334;81;21025;-79
2022/11/07 03:05:31;;;;;;;42.62;23.20;;;;;;;4.60;83.90;100597.61;1719228;81;21551;-79
2022/11/07 03:08:16;;;;;;;39.30;23.25;;;;;;;4.60;83.92;100592.06;1705674;81;22246;-79
2022/11/07 03:11:03;;;;;;;36.08;21.85;;;;;;;4.59;83.91;100587.78;1706251;81;21334;-78
2022/11/07 03:13:50;;;;;;;42.55;22.22;;;;;;;4.59;83.96;100585.23;1707144;81;21083;-78
2022/11/07 03:16:35;;;;;;;38.80;22.27;;;;;;;4.58;83.93;100597.59;1714744;81;20901;-79
2022/11/07 03:19:20;;;;;;;41.58;22.27;;;;;;;4.58;83.94;100604.42;1710867;81;20913;-79
2022/11/07 03:22:05;;;;;;;39.80;23.20;;;;;;;4.59;83.95;100608.70;1709991;82;20953;-79
2022/11/07 03:24:50;;;;;;;39.85;23.20;;;;;;;4.58;83.94;100609.12;1712736;81;21680;-79
2022/11/07 03:27:35;;;;;;;37.17;22.37;;;;;;;4.57;84.00;100612.52;1694571;82;21133;-79
2022/11/07 03:30:20;;;;;;;42.27;23.50;;;;;;;4.57;84.01;100607.41;1673154;83;21128;-79
2022/11/07 03:33:05;;;;;;;35.88;22.60;;;;;;;4.58;84.00;100610.82;1689358;83;21493;-79
2022/11/07 03:35:50;;;;;;;47.23;23.90;;;;;;;4.57;84.00;100611.66;1703457;81;21087;-79
2022/11/07 03:38:35;;;;;;;39.30;22.37;;;;;;;4.58;84.00;100614.23;1721594;81;21156;-79
2022/11/07 03:41:21;;;;;;;42.05;23.77;;;;;;;4.57;83.99;100609.11;1710859;81;21078;-79
2022/11/07 03:44:06;;;;;;;39.48;22.13;;;;;;;4.57;84.01;100601.42;1717389;81;21498;-79
2022/11/07 03:46:51;;;;;;;38.02;22.10;;;;;;;4.57;83.99;100603.98;1729633;81;21073;-79
2022/11/07 03:49:36;;;;;;;37.40;22.40;;;;;;;4.56;83.98;100604.83;1715946;81;21056;-79
2022/11/07 03:52:22;;;;;;;32.88;21.73;;;;;;;4.54;84.02;100607.80;1714792;81;20988;-80
2022/11/07 03:55:08;;;;;;;42.05;22.52;;;;;;;4.53;84.04;100607.36;1708387;81;21107;-79
2022/11/07 03:57:53;;;;;;;37.08;20.55;;;;;;;4.53;84.05;100601.82;1689461;83;21310;-79
2022/11/07 04:00:38;;;;;;;47.45;22.82;;;;;;;4.52;84.04;100601.38;1653055;85;20945;-79
2022/11/07 04:03:23;;;;;;;41.80;22.13;;;;;;;4.51;84.05;100598.39;1660328;85;21084;-79
2022/11/07 04:06:08;;;;;;;39.30;21.50;;;;;;;4.50;84.06;100599.23;1694897;83;21201;-79
2022/11/07 04:08:53;;;;;;;42.25;21.60;;;;;;;4.49;84.05;100591.12;1721506;81;21099;-78
2022/11/07 04:17:46;;;;;;;32.35;20.23;;;;;;;4.41;84.04;100583.79;1700233;81;21031;-79
2022/11/07 04:20:30;;;;;;;35.03;20.77;;;;;;;4.39;84.05;100585.48;1710547;81;21629;-79
2022/11/07 04:23:15;;;;;;;36.10;21.77;;;;;;;4.37;84.06;100585.89;1714263;81;22155;-79
2022/11/07 04:29:04;;;;;;;41.28;22.55;;;;;;;4.33;84.09;100572.63;1715398;81;21123;-79
2022/11/07 04:31:49;;;;;;;41.40;22.13;;;;;;;4.33;84.11;100578.61;1701739;83;21111;-80
2022/11/07 04:34:34;;;;;;;42.13;22.02;;;;;;;4.33;84.12;100571.34;1721559;81;22263;-79
2022/11/07 04:37:20;;;;;;;37.75;21.75;;;;;;;4.32;84.11;100570.49;1695657;81;21107;-79
2022/11/07 04:40:07;;;;;;;39.88;22.15;;;;;;;4.33;84.13;100570.06;1685312;83;21001;-79
2022/11/07 04:42:54;;;;;;;40.60;23.77;;;;;;;4.33;84.17;100565.80;1720392;82;21355;-79
2022/11/07 04:45:38;;;;;;;36.80;21.02;;;;;;;4.33;84.14;100576.05;1723285;81;20947;-79
2022/11/07 04:48:23;;;;;;;39.42;21.87;;;;;;;4.35;84.18;100577.34;1712415;81;21009;-79
2022/11/07 04:51:15;;;;;;;42.48;23.10;;;;;;;4.36;84.18;100573.08;1720889;81;21063;-79
2022/11/07 04:54:00;;;;;;;39.98;21.42;;;;;;;4.38;84.19;100568.83;1712908;81;21059;-79
2022/11/07 04:56:45;;;;;;;34.40;21.60;;;;;;;4.40;84.23;100562.02;1703373;81;21518;-79
2022/11/07 04:59:30;;;;;;;36.33;21.42;;;;;;;4.41;84.23;100562.03;1719958;81;21052;-79
2022/11/07 05:02:16;;;;;;;36.42;22.40;;;;;;;4.44;84.25;100568.45;1674988;83;21425;-79
2022/11/07 05:05:01;;;;;;;45.15;22.37;;;;;;;4.47;84.28;100571.47;1716398;81;21721;-79
2022/11/07 05:07:47;;;;;;;37.03;22.02;;;;;;;4.49;84.29;100578.31;1673195;83;21145;-79
2022/11/07 05:10:32;;;;;;;42.45;23.07;;;;;;;4.50;84.29;100581.31;1720146;82;21088;-79
2022/11/07 05:13:17;;;;;;;41.65;21.95;;;;;;;4.53;84.32;100568.53;1705144;81;21054;-79
2022/11/07 05:16:02;;;;;;;36.70;21.45;;;;;;;4.56;84.35;100566.00;1681160;83;21108;-79
2022/11/07 05:18:47;;;;;;;39.35;22.55;;;;;;;4.59;84.37;100569.86;1684018;83;21070;-79
2022/11/07 05:21:32;;;;;;;38.60;23.47;;;;;;;4.61;84.38;100561.77;1713006;80;21127;-79
2022/11/07 05:24:18;;;;;;;38.45;22.70;;;;;;;4.65;84.39;100563.50;1705185;81;38370;-79
2022/11/07 05:27:05;;;;;;;40.65;22.62;;;;;;;4.68;84.38;100563.09;1707477;82;21543;-80
2022/11/07 05:29:49;;;;;;;;;;;;;;;4.70;84.40;100562.65;1708901;81;21144;-79
2022/11/07 05:32:37;;;;;;;36.83;21.12;;;;;;;4.73;84.50;100562.25;1709614;81;20229;-78
2022/11/07 05:35:23;;;;;;;34.30;22.07;;;;;;;4.75;84.45;100560.98;1696460;81;21100;-79
2022/11/07 05:38:09;;;;;;;40.30;23.00;;;;;;;4.78;84.46;100569.96;1711845;81;21127;-79
2022/11/07 05:40:54;;;;;;;44.50;22.35;;;;;;;4.81;84.46;100573.41;1679987;83;21660;-79
2022/11/07 05:43:39;;;;;;;39.95;21.42;;;;;;;4.83;84.45;100565.30;1718174;81;21020;-79
2022/11/07 05:46:24;;;;;;;38.13;21.37;;;;;;;4.86;84.48;100583.69;1712811;81;21108;-79
2022/11/07 05:49:10;;;;;;;35.28;21.68;;;;;;;4.88;84.50;100586.69;1713940;81;21060;-79
2022/11/07 05:51:56;;;;;;;43.07;22.20;;;;;;;4.90;84.50;100579.87;1711335;81;21067;-79
2022/11/07 05:54:41;;;;;;;35.85;20.25;;;;;;;4.92;84.50;100573.47;1714821;81;21745;-79
2022/11/07 05:57:30;;;;;;;32.78;19.30;;;;;;;4.93;84.53;100573.48;1707697;81;21083;-78
2022/11/07 06:00:16;;;;;;;33.42;18.37;;;;;;;4.97;84.53;100573.08;1707217;81;21048;-78
2022/11/07 06:03:01;;;;;;;35.52;19.05;;;;;;;4.99;84.56;100584.20;1708771;81;26716;-79
2022/11/07 06:05:46;;;;;;;37.98;19.20;;;;;;;5.03;84.58;100590.20;1705155;81;21563;-78
2022/11/07 06:08:31;;;;;;;38.13;19.30;;;;;;;5.06;84.59;100594.06;1697693;81;21035;-78
2022/11/07 06:11:16;;;;;;;37.60;18.85;;;;;;;5.08;84.59;100591.94;1714374;81;21123;-78
2022/11/07 06:14:01;;;;;;;37.40;19.82;;;;;;;5.11;84.60;100590.67;1704710;81;21059;-78
2022/11/07 06:16:46;;;;;;;57.50;22.05;;;;;;;5.13;84.59;100585.14;1703586;81;21579;-79
2022/11/07 06:19:31;;;;;;;75.52;25.52;;;;;;;5.16;84.62;100588.14;1700608;81;21076;-78
2022/11/07 06:22:16;;;;;;;70.70;25.85;;;;;;;5.18;84.62;100591.57;1715647;81;21010;-78
2022/11/07 06:25:03;;;;;;;67.42;25.95;;;;;;;5.21;84.64;100603.95;1712305;81;21468;-78
2022/11/07 06:27:48;;;;;;;61.05;24.52;;;;;;;5.23;84.63;100606.52;1705794;81;21059;-78
2022/11/07 06:30:35;;;;;;;56.02;22.98;;;;;;;5.26;84.64;100602.69;1710911;81;21115;-78
2022/11/07 06:33:20;;;;;;;45.48;21.50;;;;;;;5.28;84.62;100608.27;1709767;81;21128;-79
2022/11/07 06:36:10;;;;;;;42.48;20.68;;;;;;;5.31;84.64;100612.55;1706646;81;21147;-79
2022/11/07 06:38:55;;;;;;;36.13;19.57;;;;;;;5.33;84.65;100606.58;1692484;81;21584;-79
2022/11/07 06:41:40;;;;;;;38.23;19.07;;;;;;;5.36;84.65;100617.70;1699842;82;20922;-79
2022/11/07 06:44:25;;;;;;;30.45;18.07;;;;;;;5.39;84.66;100617.72;1655796;84;21402;-79
2022/11/07 06:47:10;;;;;;;30.32;17.37;;;;;;;5.40;84.67;100620.29;1673261;83;20962;-79
2022/11/07 06:49:56;;;;;;;36.17;18.05;;;;;;;5.42;84.66;100618.59;1675677;83;21056;-79
2022/11/07 06:52:41;;;;;;;27.02;17.45;;;;;;;5.44;84.68;100625.01;1681390;82;21526;-79
2022/11/07 06:55:26;;;;;;;33.88;17.45;;;;;;;5.46;84.72;100625.45;1676552;83;21711;-79
2022/11/07 06:58:11;;;;;;;31.02;16.85;;;;;;;5.49;84.74;100624.61;1678767;83;22294;-79
2022/11/07 07:01:03;;;;;;;29.45;16.75;;;;;;;5.51;84.74;100626.75;1678961;83;21727;-79
2022/11/07 07:03:48;;;;;;;28.98;16.82;;;;;;;5.52;84.72;100628.47;1684702;83;21540;-79
2022/11/07 07:06:33;;;;;;;33.02;18.07;;;;;;;5.54;84.74;100630.20;1690881;83;21335;-79
2022/11/07 07:09:19;;;;;;;31.90;18.60;;;;;;;5.59;84.77;100637.91;1675697;83;21529;-78
2022/11/07 07:12:05;;;;;;;34.20;18.20;;;;;;;5.64;84.77;100644.78;1681960;83;21008;-78
2022/11/07 07:14:50;;;;;;;45.95;20.95;;;;;;;5.70;84.77;100640.09;1678802;83;21407;-78
2022/11/07 07:17:35;;;;;;;43.08;21.20;;;;;;;5.76;84.80;100641.38;1675539;83;21009;-78
2022/11/07 07:20:20;;;;;;;37.93;21.77;;;;;;;5.82;84.73;100641.40;1680994;83;20970;-79
2022/11/07 07:23:05;;;;;;;37.73;20.35;;;;;;;5.92;84.83;100648.73;1682683;83;21397;-79
2022/11/07 07:25:51;;;;;;;35.80;21.17;;;;;;;6.08;84.87;100649.22;1681215;83;20913;-79
2022/11/07 07:28:36;;;;;;;38.10;20.43;;;;;;;6.27;84.99;100641.97;1687750;80;20941;-79
2022/11/07 07:31:25;;;;;;;39.63;20.43;;;;;;;6.51;84.88;100646.28;1675170;83;21439;-79
2022/11/07 07:34:10;;;;;;;38.15;19.65;;;;;;;6.62;84.79;100648.44;1678568;81;20926;-79
2022/11/07 07:36:54;;;;;;;35.40;19.37;;;;;;;6.79;84.86;100648.84;1680284;83;21478;-79
2022/11/07 07:39:40;;;;;;;31.82;17.80;;;;;;;6.89;84.74;100643.70;1681729;83;21115;-78
2022/11/07 07:42:25;;;;;;;32.80;18.57;;;;;;;6.95;84.75;100640.27;1602571;83;5001281;-78
2022/11/07 07:45:15;;;;;;;32.95;18.42;;;;;;;7.11;84.85;100640.69;1624504;86;20972;-78
2022/11/07 07:48:01;;;;;;;22.45;15.45;;;;;;;7.33;84.92;100647.90;1627149;85;21119;-78
2022/11/07 07:50:49;;;;;;;26.57;15.13;;;;;;;7.43;84.78;100648.73;1627547;85;21142;-79
2022/11/07 07:53:34;;;;;;;27.02;15.45;;;;;;;7.47;84.79;100644.02;1633180;86;21012;-79
2022/11/07 07:56:19;;;;;;;28.57;14.20;;;;;;;7.50;84.78;100644.00;1621552;86;21061;-79
2022/11/07 07:59:05;;;;;;;27.07;14.13;;;;;;;7.49;84.75;100637.14;1621319;85;21161;-79
2022/11/07 08:01:50;;;;;;;23.15;12.65;;;;;;;7.48;84.75;100640.58;1629743;85;21515;-79
2022/11/07 08:04:35;;;;;;;24.20;12.88;;;;;;;7.49;84.85;100641.86;1628971;86;21116;-79
2022/11/07 08:07:20;;;;;;;25.52;12.80;;;;;;;7.50;84.84;100641.00;1621960;85;21105;-79
2022/11/07 08:10:07;;;;;;;18.20;12.18;;;;;;;7.49;84.80;100639.28;1635203;86;21064;-79
2022/11/07 08:12:52;;;;;;;21.87;12.30;;;;;;;7.48;84.82;100639.29;1631678;85;20982;-79
2022/11/07 08:15:37;;;;;;;22.30;12.65;;;;;;;7.47;84.79;100639.72;1634993;86;21037;-80
2022/11/07 08:18:23;;;;;;;16.73;11.03;;;;;;;7.49;84.87;100635.42;1622562;86;21083;-79
2022/11/07 08:21:08;;;;;;;22.25;12.60;;;;;;;7.52;84.87;100632.84;1632191;86;20921;-80
2022/11/07 08:23:53;;;;;;;17.75;10.58;;;;;;;7.57;84.89;100628.97;1632534;85;20961;-79
2022/11/07 08:26:38;;;;;;;13.90;10.63;;;;;;;7.62;84.89;100644.82;1627704;85;21394;-79
2022/11/07 08:29:23;;;;;;;15.93;11.08;;;;;;;7.68;84.90;100643.94;1633012;86;20937;-80
2022/11/07 08:32:08;;;;;;;14.83;10.82;;;;;;;7.74;84.84;100648.21;1627713;85;21448;-79
2022/11/07 08:34:53;;;;;;;18.95;10.55;;;;;;;7.81;84.87;100649.87;1597564;87;20946;-80
2022/11/07 08:37:38;;;;;;;17.15;11.18;;;;;;;7.88;84.80;100659.28;1624480;85;21800;-79
2022/11/07 08:40:24;;;;;;;14.47;10.40;;;;;;;7.92;84.78;100656.69;1691841;83;20922;-79
2022/11/07 08:43:08;;;;;;;16.57;11.15;;;;;;;7.94;84.77;100656.25;1691081;82;21403;-78
2022/11/07 08:45:54;;;;;;;14.60;10.08;;;;;;;7.91;84.68;100663.13;1631126;85;20970;-78
2022/11/07 08:48:39;;;;;;;17.73;9.93;;;;;;;7.89;84.78;100665.70;1689437;83;20914;-79
2022/11/07 08:51:24;;;;;;;15.60;9.55;;;;;;;8.02;84.96;100663.08;1686185;83;21410;-80
2022/11/07 08:54:11;;;;;;;16.12;10.23;;;;;;;8.17;85.02;100663.86;1677498;83;21473;-79
2022/11/07 08:56:56;;;;;;;14.55;9.33;;;;;;;8.28;84.93;100683.12;1651996;83;20964;-79
2022/11/07 08:59:41;;;;;;;12.78;9.35;;;;;;;8.38;84.90;100678.34;1684083;83;21555;-79
2022/11/07 09:02:26;;;;;;;14.00;8.58;;;;;;;8.48;84.83;100674.84;1679550;83;21524;-79
2022/11/07 09:05:11;;;;;;;14.33;9.18;;;;;;;8.56;84.81;100664.05;1687401;83;21093;-80
2022/11/07 09:07:56;;;;;;;13.00;8.73;;;;;;;8.59;84.76;100670.91;1659907;84;21052;-79
2022/11/07 09:10:42;;;;;;;9.78;8.18;;;;;;;8.61;84.77;100681.63;1657198;84;21056;-79
2022/11/07 09:13:27;;;;;;;14.30;9.25;;;;;;;8.62;84.68;100689.79;1669527;83;21527;-79
2022/11/07 09:16:16;;;;;;;11.85;8.30;;;;;;;8.61;84.66;100689.80;1669985;84;21127;-79
2022/11/07 09:18:59;;;;;;;10.13;8.05;;;;;;;8.60;84.70;100686.80;1690323;83;21072;-79
2022/11/07 09:21:45;;;;;;;11.60;7.87;;;;;;;8.58;84.64;100685.95;1668236;83;21115;-79
2022/11/07 09:24:30;;;;;;;14.53;9.10;;;;;;;8.57;84.65;100690.25;1683681;82;21104;-80
2022/11/07 09:27:15;;;;;;;12.75;8.80;;;;;;;8.56;84.67;100694.98;1687079;83;21057;-79
2022/11/07 09:30:01;;;;;;;12.65;8.25;;;;;;;8.57;84.67;100697.98;1691962;83;21116;-79
2022/11/07 09:32:47;;;;;;;11.08;7.75;;;;;;;8.58;84.64;100699.70;1690306;83;20918;-79
2022/11/07 09:35:32;;;;;;;11.07;8.10;;;;;;;8.59;84.68;100692.39;1615676;83;5001458;-79
2022/11/07 09:38:17;;;;;;;10.32;8.03;;;;;;;8.60;84.56;100700.98;1678590;82;21068;-79
2022/11/07 09:41:23;;;;;;;12.03;8.10;;;;;;;8.58;84.58;100699.70;1697743;83;20914;-78
2022/11/07 09:44:25;;;;;;;11.60;7.70;;;;;;;8.61;84.63;100711.70;1707978;82;20966;-78
2022/11/07 09:47:19;;;;;;;9.88;7.62;;;;;;;8.63;84.61;100710.83;1707524;82;20941;-78
2022/11/07 09:50:12;;;;;;;9.85;7.92;;;;;;;8.65;84.63;100709.97;1662867;83;21426;-80
2022/11/07 09:53:31;;;;;;;14.55;8.15;;;;;;;8.66;84.55;100720.70;1677129;83;20946;-80
2022/11/07 09:56:16;;;;;;;9.88;7.90;;;;;;;8.67;84.54;100715.97;1666516;84;21024;-79
2022/11/07 09:59:07;;;;;;;9.60;7.97;;;;;;;8.69;84.58;100716.38;1699002;82;21089;-79
2022/11/07 10:01:52;;;;;;;10.43;8.25;;;;;;;8.73;84.58;100721.94;1656392;84;21054;-79
2022/11/07 10:04:37;;;;;;;12.68;8.25;;;;;;;8.78;84.62;100718.90;1692397;82;21120;-79
2022/11/07 10:07:50;;;;;;;12.35;8.23;;;;;;;8.81;84.56;100714.16;1655873;84;21058;-79
2022/11/07 10:10:55;;;;;;;9.80;7.70;;;;;;;8.85;84.57;100717.10;1666191;83;590512;-80
2022/11/07 10:13:45;;;;;;;10.90;7.70;;;;;;;8.89;84.53;100715.78;1677210;83;21064;-81
2022/11/07 10:17:10;;;;;;;9.18;7.35;;;;;;;8.93;84.48;100716.18;1699641;82;21128;-81
2022/11/07 10:20:28;;;;;;;12.73;8.43;;;;;;;8.98;84.51;100718.72;1692200;82;21175;-82
2022/11/07 10:23:44;;;;;;;11.60;7.55;;;;;;;9.02;84.51;100720.84;1691203;82;21053;-82
2022/11/07 10:26:30;;;;;;;;;;;;;;;9.08;84.50;100725.95;1700693;82;21077;-82
2022/11/07 10:29:23;;;;;;;8.30;6.65;;;;;;;9.12;84.35;100727.64;1663212;83;20446;-82
2022/11/07 10:32:28;;;;;;;11.10;7.33;;;;;;;9.14;84.46;100724.19;1678579;83;21084;-82
2022/11/07 10:35:34;;;;;;;8.88;7.40;;;;;;;9.15;84.39;100723.75;1675802;83;21549;-83
2022/11/07 10:38:27;;;;;;;10.13;7.60;;;;;;;9.17;84.40;100720.72;1679000;83;21139;-82
2022/11/07 10:41:25;;;;;;;14.07;7.83;;;;;;;9.20;84.41;100717.69;1677906;83;21441;-82
2022/11/07 10:44:23;;;;;;;9.18;7.10;;;;;;;9.24;84.39;100714.64;1675214;83;21120;-82
2022/11/07 10:47:21;;;;;;;9.13;8.05;;;;;;;9.29;84.41;100709.86;1675176;83;21044;-83
2022/11/07 10:50:22;;;;;;;11.05;7.47;;;;;;;9.36;84.42;100711.09;1700028;82;21072;-83
2022/11/07 10:53:12;;;;;;;12.63;8.28;;;;;;;9.42;84.41;100719.61;1693883;82;20969;-83
2022/11/07 10:55:58;;;;;;;11.75;7.22;;;;;;;9.47;84.33;100716.98;1694669;82;21108;-82
2022/11/07 10:58:45;;;;;;;8.35;7.03;;;;;;;9.50;84.32;100717.80;1700404;82;21053;-82
2022/11/07 11:01:30;;;;;;;10.23;7.45;;;;;;;9.57;84.30;100717.31;1700039;82;21170;-82
2022/11/07 11:04:28;;;;;;;8.95;7.20;;;;;;;9.61;84.34;100713.83;1696097;82;21048;-83
2022/11/07 11:07:14;;;;;;;7.62;6.83;;;;;;;9.67;84.25;100711.61;1662374;84;21057;-83
2022/11/07 11:09:59;;;;;;;8.58;6.67;;;;;;;9.68;84.24;100706.44;1665133;83;21509;-83
2022/11/07 11:12:48;;;;;;;8.95;6.72;;;;;;;9.74;84.26;100709.39;1666719;83;21539;-83
2022/11/07 11:15:43;;;;;;;8.10;6.47;;;;;;;9.79;84.25;100708.47;1689662;82;21140;-83
2022/11/07 11:18:28;;;;;;;11.83;6.97;;;;;;;9.86;84.32;100706.23;1702953;82;21096;-83
2022/11/07 11:21:13;;;;;;;10.28;6.42;;;;;;;9.93;84.23;100709.13;1710067;82;21032;-83
2022/11/07 11:23:58;;;;;;;9.68;6.85;;;;;;;9.98;84.21;100704.34;1706118;82;21084;-83
2022/11/07 11:26:45;;;;;;;7.85;6.37;;;;;;;10.03;84.21;100709.88;1696381;82;21360;-83
2022/11/07 11:29:44;;;;;;;8.78;6.12;;;;;;;10.08;84.21;100715.84;1686095;83;21563;-79
2022/11/07 11:32:41;;;;;;;6.87;6.25;;;;;;;10.13;84.16;100710.63;1699144;82;21057;-79
2022/11/07 11:35:52;;;;;;;9.60;6.83;;;;;;;10.20;84.16;100712.29;1716528;82;21573;-79
2022/11/07 11:38:38;;;;;;;8.83;6.17;;;;;;;10.27;84.12;100711.33;1702790;82;21693;-80
2022/11/07 11:41:38;;;;;;;7.47;6.10;;;;;;;10.30;84.10;100711.30;1699634;82;21147;-80
2022/11/07 11:44:44;;;;;;;7.25;5.67;;;;;;;10.37;84.12;100710.78;1706343;82;21102;-80
2022/11/07 11:47:40;;;;;;;7.95;6.17;;;;;;;10.44;84.06;100708.48;1699762;82;21530;-80
2022/11/07 11:50:31;;;;;;;;;;;;;;;10.47;84.02;100711.89;1706303;82;21080;-80
2022/11/07 11:53:20;;;;;;;5.90;5.08;;;;;;;10.50;83.83;100717.02;1707539;82;20227;-79
2022/11/07 11:56:30;;;;;;;8.48;5.12;;;;;;;10.56;84.01;100714.34;1695786;82;21123;-80
2022/11/07 11:59:57;;;;;;;9.68;5.17;;;;;;;10.57;83.91;100714.77;1706733;82;21099;-80
2022/11/07 12:02:47;;;;;;;10.03;5.35;;;;;;;10.56;83.84;100716.08;1696671;82;21073;-80
2022/11/07 12:06:03;;;;;;;11.75;5.00;;;;;;;10.54;83.82;100722.56;1698632;82;21584;-83
2022/11/07 12:09:16;;;;;;;10.48;5.25;;;;;;;10.52;83.80;100716.56;1700570;82;20961;-81
2022/11/07 12:12:27;;;;;;;6.90;5.22;;;;;;;10.56;83.85;100720.81;1700890;82;21068;-82
2022/11/07 12:15:55;;;;;;;5.90;4.05;;;;;;;10.63;83.87;100720.73;1693895;82;21857;-80
2022/11/07 12:18:57;;;;;;;6.87;4.50;;;;;;;10.64;83.74;100714.23;1713956;82;21036;-81
2022/11/07 12:22:05;;;;;;;5.22;3.80;;;;;;;10.66;83.78;100716.36;1701178;82;21048;-81
2022/11/07 12:25:14;;;;;;;7.58;4.30;;;;;;;10.67;83.69;100706.44;1694954;82;21128;-81
2022/11/07 12:28:23;;;;;;;7.17;4.58;;;;;;;10.67;83.64;100705.58;1663901;83;21009;-81
2022/11/07 12:31:35;;;;;;;7.50;4.12;;;;;;;10.68;83.68;100700.39;1677918;83;21061;-81
2022/11/07 12:34:46;;;;;;;6.45;3.90;;;;;;;10.70;83.60;100703.80;1674922;83;21071;-81
2022/11/07 12:37:49;;;;;;;7.30;4.15;;;;;;;10.72;83.61;100706.37;1698322;81;21156;-80
2022/11/07 12:41:09;;;;;;;8.25;4.45;;;;;;;10.73;83.59;100699.02;1698574;82;21659;-80
2022/11/07 12:44:24;;;;;;;5.92;4.50;;;;;;;10.74;83.51;100703.31;1697069;82;21147;-79
2022/11/07 12:47:17;;;;;;;4.28;3.87;;;;;;;10.74;83.49;100696.86;1691903;82;21125;-83
2022/11/07 12:50:22;;;;;;;4.20;3.77;;;;;;;10.76;83.52;100688.19;1707810;82;21044;-79
2022/11/07 12:53:25;;;;;;;5.83;3.70;;;;;;;10.79;83.47;100689.88;1700078;82;21104;-80
2022/11/07 12:56:23;;;;;;;4.72;3.40;;;;;;;10.83;83.50;100696.72;1709826;82;21072;-79
2022/11/07 12:59:16;;;;;;;7.45;3.70;;;;;;;10.84;83.43;100687.64;1682362;82;21126;-79
2022/11/07 13:02:10;;;;;;;6.03;4.00;;;;;;;10.85;83.39;100694.52;1653719;85;21089;-81
2022/11/07 13:05:09;;;;;;;5.80;3.87;;;;;;;10.87;83.40;100694.49;1658933;84;21576;-80
2022/11/07 13:08:15;;;;;;;6.25;4.95;;;;;;;10.88;83.34;100691.03;1673222;83;21113;-80
2022/11/07 13:11:15;;;;;;;7.53;4.50;;;;;;;10.86;83.32;100688.47;1677428;83;21631;-79
2022/11/07 13:14:24;;;;;;;10.08;4.83;;;;;;;10.86;83.30;100690.20;1698442;81;21588;-79
2022/11/07 13:17:19;;;;;;;9.75;4.62;;;;;;;10.87;83.29;100691.91;1665584;84;21054;-79